createdAt,value
2023-05-15T00:00:30.447Z,19.38
2023-05-15T00:03:17.981Z,18.90
2023-05-15T00:05:45.483Z,17.33
2023-05-15T00:08:12.862Z,18.33
2023-05-15T00:10:42.780Z,23.10
2023-05-15T00:13:17.231Z,18.02
2023-05-15T00:15:44.328Z,17.95
2023-05-15T00:18:11.863Z,18.25
2023-05-15T00:20:38.983Z,18.33
2023-05-15T00:23:09.552Z,18.48
2023-05-15T00:25:36.587Z,21.13
2023-05-15T00:28:04.070Z,18.10
2023-05-15T00:30:33.563Z,19.38
2023-05-15T00:33:00.967Z,19.70
2023-05-15T00:35:30.252Z,20.13
2023-05-15T00:38:02.108Z,17.65
2023-05-15T00:40:29.600Z,20.02
2023-05-15T00:42:58.089Z,18.05
2023-05-15T00:45:30.496Z,19.92
2023-05-15T00:47:58.841Z,19.08
2023-05-15T00:50:29.301Z,17.10
2023-05-15T00:52:57.167Z,20.60
2023-05-15T00:55:26.479Z,20.88
2023-05-15T00:57:54.630Z,21.35
2023-05-15T01:00:25.093Z,19.50
2023-05-15T01:02:53.814Z,18.48
2023-05-15T01:05:23.522Z,20.00
2023-05-15T01:08:14.674Z,18.52
2023-05-15T01:10:44.155Z,18.75
2023-05-15T01:13:14.247Z,18.88
2023-05-15T01:15:41.765Z,20.42
2023-05-15T01:18:09.170Z,17.60
2023-05-15T01:21:02.224Z,17.05
2023-05-15T01:23:58.009Z,20.33
2023-05-15T01:26:43.358Z,18.00
2023-05-15T01:29:35.892Z,16.70
2023-05-15T01:32:09.119Z,17.13
2023-05-15T01:37:32.191Z,17.33
2023-05-15T01:40:06.606Z,20.23
2023-05-15T01:42:40.552Z,17.02
2023-05-15T01:45:12.287Z,18.45
2023-05-15T01:47:44.270Z,17.45
2023-05-15T01:50:17.447Z,18.10
2023-05-15T01:53:05.636Z,17.35
2023-05-15T01:55:34.857Z,18.83
2023-05-15T01:58:05.615Z,17.40
2023-05-15T02:00:35.994Z,17.80
2023-05-15T02:03:05.854Z,18.13
2023-05-15T02:05:35.691Z,16.00
2023-05-15T02:08:06.168Z,17.15
2023-05-15T02:10:34.414Z,16.48
2023-05-15T02:13:01.885Z,16.33
2023-05-15T02:15:30.089Z,17.30
2023-05-15T02:17:59.780Z,15.57
2023-05-15T02:20:29.654Z,15.60
2023-05-15T02:22:56.697Z,16.08
2023-05-15T02:25:48.850Z,15.07
2023-05-15T02:28:30.854Z,17.02
2023-05-15T02:31:08.042Z,16.33
2023-05-15T02:33:45.772Z,16.30
2023-05-15T02:36:20.269Z,14.50
2023-05-15T02:38:48.362Z,14.88
2023-05-15T02:41:19.507Z,14.82
2023-05-15T02:43:51.718Z,13.32
2023-05-15T02:46:20.813Z,12.47
2023-05-15T02:48:48.795Z,13.63
2023-05-15T02:51:19.340Z,13.10
2023-05-15T02:53:46.658Z,13.75
2023-05-15T02:56:14.218Z,14.20
2023-05-15T02:58:42.049Z,14.80
2023-05-15T03:03:47.758Z,16.58
2023-05-15T03:06:15.121Z,15.90
2023-05-15T03:08:42.151Z,15.57
2023-05-15T03:11:11.750Z,16.23
2023-05-15T03:13:38.756Z,16.80
2023-05-15T03:16:06.378Z,22.10
2023-05-15T03:18:35.954Z,19.40
2023-05-15T03:21:05.814Z,17.00
2023-05-15T03:23:32.871Z,17.27
2023-05-15T03:26:00.216Z,16.73
2023-05-15T03:28:27.314Z,20.73
2023-05-15T03:30:57.173Z,16.27
2023-05-15T03:33:24.270Z,15.43
2023-05-15T03:35:54.113Z,17.20
2023-05-15T03:38:21.224Z,16.88
2023-05-15T03:40:50.316Z,15.90
2023-05-15T03:43:20.701Z,15.55
2023-05-15T03:45:50.875Z,17.40
2023-05-15T03:48:20.229Z,17.45
2023-05-15T03:50:47.599Z,15.95
2023-05-15T03:53:17.008Z,14.93
2023-05-15T03:55:52.243Z,15.40
2023-05-15T03:58:19.316Z,16.48
2023-05-15T04:00:46.715Z,16.25
2023-05-15T04:03:18.342Z,16.27
2023-05-15T04:05:45.854Z,16.30
2023-05-15T04:08:15.182Z,15.68
2023-05-15T04:10:42.706Z,14.45
2023-05-15T04:13:09.801Z,15.75
2023-05-15T04:15:39.940Z,14.13
2023-05-15T04:18:09.337Z,18.27
2023-05-15T04:20:36.764Z,17.00
2023-05-15T04:23:06.201Z,16.73
2023-05-15T04:25:33.570Z,16.23
2023-05-15T04:28:00.625Z,14.98
2023-05-15T04:30:28.022Z,15.63
2023-05-15T04:32:55.130Z,14.73
2023-05-15T04:35:22.548Z,15.38
2023-05-15T04:37:51.860Z,15.52
2023-05-15T04:40:19.205Z,16.33
2023-05-15T04:42:46.230Z,18.50
2023-05-15T04:45:15.989Z,15.48
2023-05-15T04:47:43.135Z,14.75
2023-05-15T04:50:13.215Z,15.35
2023-05-15T04:52:40.238Z,15.88
2023-05-15T04:55:08.599Z,14.02
2023-05-15T04:57:35.712Z,16.33
2023-05-15T05:00:03.388Z,14.30
2023-05-15T05:02:30.679Z,14.25
2023-05-15T05:04:58.297Z,18.67
2023-05-15T05:07:27.856Z,15.43
2023-05-15T05:09:55.247Z,16.23
2023-05-15T05:12:22.284Z,15.57
2023-05-15T05:14:49.587Z,15.32
2023-05-15T05:17:21.356Z,16.13
2023-05-15T05:19:48.694Z,15.63
2023-05-15T05:22:18.116Z,15.05
2023-05-15T05:24:45.493Z,14.18
2023-05-15T05:27:12.627Z,13.90
2023-05-15T05:29:41.322Z,20.45
2023-05-15T05:32:08.416Z,16.48
2023-05-15T05:34:35.753Z,13.68
2023-05-15T05:37:02.759Z,13.40
2023-05-15T05:39:30.175Z,13.80
2023-05-15T05:41:57.225Z,15.50
2023-05-15T05:44:26.789Z,15.73
2023-05-15T05:46:53.895Z,15.05
2023-05-15T05:49:21.327Z,14.07
2023-05-15T05:51:50.615Z,15.82
2023-05-15T05:54:17.985Z,13.60
2023-05-15T05:56:45.525Z,11.98
2023-05-15T05:59:12.959Z,13.07
2023-05-15T06:01:40.312Z,13.18
2023-05-15T06:04:10.349Z,12.95
2023-05-15T06:06:37.471Z,17.98
2023-05-15T06:09:04.785Z,14.05
2023-05-15T06:11:34.345Z,13.23
2023-05-15T06:14:01.661Z,13.43
2023-05-15T06:16:28.786Z,12.50
2023-05-15T06:18:56.169Z,21.70
2023-05-15T06:21:23.266Z,19.08
2023-05-15T06:23:50.607Z,14.70
2023-05-15T06:26:17.726Z,12.82
2023-05-15T06:28:45.137Z,14.48
2023-05-15T06:31:17.129Z,13.10
2023-05-15T06:33:46.793Z,12.52
2023-05-15T06:36:13.840Z,12.45
2023-05-15T06:38:41.166Z,13.77
2023-05-15T06:41:08.164Z,13.40
2023-05-15T06:43:36.471Z,11.15
2023-05-15T06:46:03.879Z,11.52
2023-05-15T06:48:33.809Z,12.57
2023-05-15T06:51:00.983Z,11.23
2023-05-15T06:53:29.999Z,11.48
2023-05-15T06:55:59.387Z,12.77
2023-05-15T06:58:26.722Z,11.55
2023-05-15T07:00:56.049Z,11.80
2023-05-15T07:03:28.334Z,10.75
2023-05-15T07:05:58.050Z,12.45
2023-05-15T07:08:30.169Z,13.55
2023-05-15T07:10:57.260Z,13.85
2023-05-15T07:13:24.579Z,13.63
2023-05-15T07:15:51.643Z,11.27
2023-05-15T07:18:18.998Z,11.50
2023-05-15T07:20:46.099Z,12.60
2023-05-15T07:23:15.902Z,10.80
2023-05-15T07:25:43.492Z,9.60
2023-05-15T07:28:14.122Z,10.60
2023-05-15T07:30:41.474Z,12.30
2023-05-15T07:33:08.850Z,9.13
2023-05-15T07:35:35.877Z,10.13
2023-05-15T07:38:03.261Z,10.43
2023-05-15T07:40:30.462Z,5.03
2023-05-15T07:42:57.894Z,9.27
2023-05-15T07:45:25.332Z,7.43
2023-05-15T07:47:55.426Z,7.57
2023-05-15T07:50:22.523Z,7.15
2023-05-15T07:52:52.101Z,8.73
2023-05-15T07:55:19.224Z,7.95
2023-05-15T07:57:53.636Z,8.02
2023-05-15T08:00:21.416Z,8.43
2023-05-15T08:02:48.864Z,7.85
2023-05-15T08:05:20.749Z,7.05
2023-05-15T08:07:48.096Z,10.73
2023-05-15T08:10:15.144Z,6.85
2023-05-15T08:12:42.455Z,6.20
2023-05-15T08:15:09.939Z,6.63
2023-05-15T08:17:37.388Z,9.25
2023-05-15T08:20:05.433Z,7.32
2023-05-15T08:22:32.847Z,6.10
2023-05-15T08:25:00.236Z,9.15
2023-05-15T08:27:27.627Z,7.40
2023-05-15T08:29:54.652Z,7.45
2023-05-15T08:32:22.209Z,7.45
2023-05-15T08:34:49.358Z,7.90
2023-05-15T08:37:16.764Z,8.30
2023-05-15T08:39:44.008Z,6.60
2023-05-15T08:42:15.355Z,8.00
2023-05-15T08:44:45.323Z,8.15
2023-05-15T08:47:18.927Z,8.65
2023-05-15T08:52:28.744Z,8.25
2023-05-15T08:55:01.737Z,7.97
2023-05-15T08:57:29.658Z,8.15
2023-05-15T08:59:57.733Z,8.38
2023-05-15T09:02:25.569Z,6.30
2023-05-15T09:04:55.238Z,8.40
2023-05-15T09:07:25.550Z,8.65
2023-05-15T09:09:56.549Z,7.43
2023-05-15T09:12:25.729Z,7.07
2023-05-15T09:15:07.643Z,9.63
2023-05-15T09:17:35.129Z,6.40
2023-05-15T09:20:03.590Z,6.20
2023-05-15T09:22:39.356Z,7.57
2023-05-15T09:25:06.607Z,7.80
2023-05-15T09:27:43.207Z,9.18
2023-05-15T09:30:13.405Z,7.22
2023-05-15T09:32:43.563Z,6.03
2023-05-15T09:35:29.390Z,7.10
2023-05-15T09:38:01.434Z,5.10
2023-05-15T09:40:30.454Z,4.43
2023-05-15T09:42:58.702Z,5.68
2023-05-15T09:45:28.699Z,8.35
2023-05-15T09:48:06.521Z,6.60
2023-05-15T09:50:36.097Z,5.30
2023-05-15T09:53:04.473Z,6.40
2023-05-15T09:55:34.570Z,6.13
2023-05-15T09:58:11.830Z,6.85
2023-05-15T10:00:47.621Z,6.85
2023-05-15T10:03:18.730Z,7.15
2023-05-15T10:05:48.516Z,4.55
2023-05-15T10:08:25.848Z,5.63
2023-05-15T10:10:55.753Z,6.40
2023-05-15T10:13:31.493Z,4.78
2023-05-15T10:15:59.739Z,4.80
2023-05-15T10:18:30.410Z,4.38
2023-05-15T10:21:00.183Z,4.70
2023-05-15T10:23:31.025Z,4.13
2023-05-15T10:26:06.864Z,5.13
2023-05-15T10:28:36.153Z,4.40
2023-05-15T10:31:04.665Z,4.80
2023-05-15T10:33:33.013Z,3.80
2023-05-15T10:36:00.712Z,5.50
2023-05-15T10:38:28.972Z,7.05
2023-05-15T10:41:13.081Z,5.53
2023-05-15T10:43:45.687Z,5.28
2023-05-15T10:46:13.856Z,3.65
2023-05-15T10:48:41.519Z,2.50
2023-05-15T10:51:36.810Z,5.50
2023-05-15T10:54:06.376Z,6.97
2023-05-15T10:56:34.556Z,6.55
2023-05-15T10:59:11.794Z,5.20
2023-05-15T11:01:43.934Z,4.93
2023-05-15T11:04:18.840Z,8.98
2023-05-15T11:06:47.501Z,9.52
2023-05-15T11:09:34.891Z,6.53
2023-05-15T11:12:06.138Z,5.97
2023-05-15T11:14:55.689Z,5.57
2023-05-15T11:17:31.818Z,4.15
2023-05-15T11:20:01.987Z,7.40
2023-05-15T11:22:33.060Z,4.97
2023-05-15T11:25:10.957Z,4.63
2023-05-15T11:27:47.442Z,3.50
2023-05-15T11:30:22.526Z,4.68
2023-05-15T11:32:59.002Z,8.50
2023-05-15T11:35:38.113Z,5.03
2023-05-15T11:38:05.163Z,3.95
2023-05-15T11:40:44.347Z,3.55
2023-05-15T11:43:17.640Z,6.75
2023-05-15T11:45:49.983Z,4.82
2023-05-15T11:48:18.041Z,3.85
2023-05-15T11:50:47.772Z,6.32
2023-05-15T11:53:15.343Z,4.00
2023-05-15T11:55:44.291Z,5.28
2023-05-15T11:58:16.539Z,4.07
2023-05-15T12:00:46.100Z,6.20
2023-05-15T12:03:27.685Z,5.32
2023-05-15T12:05:59.538Z,5.20
2023-05-15T12:08:39.563Z,5.13
2023-05-15T12:11:07.045Z,3.95
2023-05-15T12:13:35.025Z,3.78
2023-05-15T12:16:05.313Z,5.55
2023-05-15T12:18:33.496Z,4.57
2023-05-15T12:21:03.495Z,5.03
2023-05-15T12:23:32.074Z,3.97
2023-05-15T12:26:03.597Z,4.45
2023-05-15T12:28:33.282Z,12.90
2023-05-15T12:31:00.727Z,10.60
2023-05-15T12:33:27.946Z,11.43
2023-05-15T12:36:00.838Z,4.80
2023-05-15T12:38:28.567Z,3.47
2023-05-15T12:40:56.241Z,4.47
2023-05-15T12:43:27.016Z,4.10
2023-05-15T12:45:56.217Z,3.95
2023-05-15T12:48:29.008Z,4.15
2023-05-15T12:50:56.378Z,3.70
2023-05-15T12:53:25.695Z,4.53
2023-05-15T12:55:55.306Z,4.53
2023-05-15T12:58:22.481Z,4.63
2023-05-15T13:00:52.042Z,4.78
2023-05-15T13:03:20.673Z,6.28
2023-05-15T13:05:48.167Z,5.80
2023-05-15T13:08:18.739Z,4.85
2023-05-15T13:10:56.853Z,5.80
2023-05-15T13:13:23.992Z,7.10
2023-05-15T13:15:51.397Z,4.97
2023-05-15T13:18:18.706Z,6.00
2023-05-15T13:20:50.518Z,4.22
2023-05-15T13:23:20.412Z,5.07
2023-05-15T13:25:47.980Z,3.80
2023-05-15T13:28:17.377Z,5.45
2023-05-15T13:30:47.310Z,5.50
2023-05-15T13:33:14.405Z,7.88
2023-05-15T13:35:41.912Z,4.57
2023-05-15T13:38:11.372Z,5.82
2023-05-15T13:40:39.570Z,7.28
2023-05-15T13:43:09.557Z,3.83
2023-05-15T13:45:36.952Z,5.07
2023-05-15T13:48:06.453Z,5.75
2023-05-15T13:50:34.120Z,5.30
2023-05-15T13:53:01.235Z,6.15
2023-05-15T13:55:31.141Z,3.88
2023-05-15T13:58:01.476Z,6.20
2023-05-15T14:00:28.791Z,6.28
2023-05-15T14:02:55.934Z,5.32
2023-05-15T14:05:23.282Z,7.10
2023-05-15T14:07:52.811Z,6.30
2023-05-15T14:10:20.216Z,5.47
2023-05-15T14:12:49.628Z,7.47
2023-05-15T14:15:17.008Z,7.65
2023-05-15T14:17:46.635Z,5.97
2023-05-15T14:20:14.189Z,9.05
2023-05-15T14:22:43.597Z,7.80
2023-05-15T14:25:11.549Z,6.80
2023-05-15T14:27:38.682Z,6.32
2023-05-15T14:30:07.317Z,6.95
2023-05-15T14:32:36.679Z,7.82
2023-05-15T14:35:04.477Z,7.88
2023-05-15T14:37:36.264Z,7.75
2023-05-15T14:40:03.978Z,8.05
2023-05-15T14:42:31.060Z,8.32
2023-05-15T14:44:58.540Z,8.88
2023-05-15T14:47:25.660Z,8.45
2023-05-15T14:49:55.681Z,9.25
2023-05-15T14:52:22.841Z,12.10
2023-05-15T14:55:00.784Z,9.90
2023-05-15T14:57:34.955Z,11.13
2023-05-15T15:00:02.623Z,8.90
2023-05-15T15:02:29.897Z,11.15
2023-05-15T15:04:59.880Z,10.57
2023-05-15T15:07:30.167Z,10.40
2023-05-15T15:12:47.096Z,13.60
2023-05-15T15:15:20.004Z,13.73
2023-05-15T15:18:10.578Z,14.53
2023-05-15T15:20:38.046Z,17.88
2023-05-15T15:23:05.095Z,15.73
2023-05-15T15:25:33.785Z,30.63
2023-05-15T15:28:10.569Z,24.75
2023-05-15T15:30:40.308Z,10.75
2023-05-15T15:33:09.804Z,12.05
2023-05-15T15:35:37.244Z,18.52
2023-05-15T15:38:04.518Z,15.05
2023-05-15T15:40:32.010Z,14.10
2023-05-15T15:42:59.060Z,13.23
2023-05-15T15:45:26.648Z,12.35
2023-05-15T15:47:53.744Z,12.40
2023-05-15T15:50:21.252Z,13.27
2023-05-15T15:52:48.304Z,11.75
2023-05-15T15:55:15.652Z,9.07
2023-05-15T15:57:43.044Z,10.02
2023-05-15T16:00:10.929Z,7.80
2023-05-15T16:02:39.702Z,12.02
2023-05-15T16:05:10.242Z,10.23
2023-05-15T16:07:37.358Z,7.75
2023-05-15T16:10:12.446Z,10.15
2023-05-15T16:12:40.993Z,9.35
2023-05-15T16:15:21.713Z,12.60
2023-05-15T16:17:52.544Z,9.43
2023-05-15T16:20:23.251Z,8.95
2023-05-15T16:22:55.353Z,9.40
2023-05-15T16:25:23.098Z,9.73
2023-05-15T16:27:50.399Z,8.68
2023-05-15T16:30:28.286Z,8.38
2023-05-15T16:33:03.652Z,9.13
2023-05-15T16:35:31.093Z,8.98
2023-05-15T16:38:11.884Z,8.85
2023-05-15T16:40:45.293Z,8.98
2023-05-15T16:43:14.012Z,10.10
2023-05-15T16:45:45.718Z,7.75
2023-05-15T16:48:13.273Z,7.90
2023-05-15T16:50:52.533Z,10.30
2023-05-15T16:53:20.216Z,10.75
2023-05-15T16:55:50.349Z,10.93
2023-05-15T16:58:19.735Z,8.65
2023-05-15T17:00:47.257Z,9.40
2023-05-15T17:03:14.442Z,8.57
2023-05-15T17:05:41.966Z,8.63
2023-05-15T17:08:09.166Z,9.25
2023-05-15T17:10:41.481Z,9.35
2023-05-15T17:13:10.762Z,8.70
2023-05-15T17:15:38.157Z,14.73
2023-05-15T17:18:05.508Z,9.05
2023-05-15T17:20:35.415Z,8.30
2023-05-15T17:23:21.689Z,7.97
2023-05-15T17:25:52.939Z,15.60
2023-05-15T17:28:20.099Z,8.55
2023-05-15T17:30:55.208Z,9.30
2023-05-15T17:33:22.375Z,8.23
2023-05-15T17:35:52.284Z,8.20
2023-05-15T17:38:19.321Z,8.48
2023-05-15T17:40:55.684Z,8.82
2023-05-15T17:46:07.930Z,9.70
2023-05-15T17:48:35.126Z,7.60
2023-05-15T17:51:02.519Z,8.32
2023-05-15T17:53:34.348Z,12.00
2023-05-15T17:56:03.003Z,12.05
2023-05-15T17:58:32.601Z,7.25
2023-05-15T18:01:00.692Z,8.13
2023-05-15T18:03:27.985Z,10.32
2023-05-15T18:05:55.789Z,8.00
2023-05-15T18:08:23.155Z,8.65
2023-05-15T18:10:50.610Z,11.20
2023-05-15T18:13:17.785Z,7.90
2023-05-15T18:15:45.203Z,11.02
2023-05-15T18:18:12.363Z,12.00
2023-05-15T18:20:39.781Z,10.55
2023-05-15T18:23:06.817Z,10.57
2023-05-15T18:25:34.252Z,10.15
2023-05-15T18:28:01.420Z,9.52
2023-05-15T18:30:31.707Z,8.93
2023-05-15T18:33:01.915Z,10.63
2023-05-15T18:35:29.376Z,10.77
2023-05-15T18:38:01.001Z,10.20
2023-05-15T18:40:28.417Z,11.38
2023-05-15T18:42:56.024Z,10.68
2023-05-15T18:45:24.375Z,9.73
2023-05-15T18:47:54.747Z,10.77
2023-05-15T18:50:22.240Z,10.63
2023-05-15T18:52:49.298Z,13.38
2023-05-15T18:55:16.726Z,10.35
2023-05-15T18:57:43.811Z,14.77
2023-05-15T19:00:16.862Z,14.18
2023-05-15T19:02:50.961Z,14.80
2023-05-15T19:05:18.496Z,12.82
2023-05-15T19:07:45.806Z,15.07
2023-05-15T19:10:13.249Z,15.65
2023-05-15T19:12:42.629Z,12.65
2023-05-15T19:15:12.912Z,12.53
2023-05-15T19:17:40.181Z,12.88
2023-05-15T19:20:08.062Z,11.07
2023-05-15T19:22:37.684Z,12.57
2023-05-15T19:25:08.304Z,14.45
2023-05-15T19:27:35.363Z,9.95
2023-05-15T19:30:02.767Z,14.50
2023-05-15T19:32:29.877Z,15.77
2023-05-15T19:34:59.686Z,14.68
2023-05-15T19:37:29.255Z,11.77
2023-05-15T19:39:59.507Z,15.45
2023-05-15T19:42:29.046Z,15.02
2023-05-15T19:44:59.066Z,11.35
2023-05-15T19:47:26.226Z,14.23
2023-05-15T19:49:55.958Z,11.48
2023-05-15T19:52:25.228Z,14.20
2023-05-15T19:54:55.200Z,11.93
2023-05-15T19:57:24.540Z,15.00
2023-05-15T19:59:54.256Z,12.85
2023-05-15T20:02:21.472Z,13.35
2023-05-15T20:04:49.190Z,12.90
2023-05-15T20:07:16.291Z,13.45
2023-05-15T20:09:43.761Z,14.60
2023-05-15T20:12:10.877Z,13.25
2023-05-15T20:14:40.456Z,15.48
2023-05-15T20:17:07.546Z,16.05
2023-05-15T20:19:35.074Z,16.17
2023-05-15T20:22:02.175Z,16.02
2023-05-15T20:24:29.810Z,14.13
2023-05-15T20:26:59.374Z,15.13
2023-05-15T20:29:26.820Z,15.07
2023-05-15T20:31:56.535Z,15.65
2023-05-15T20:34:23.994Z,15.10
2023-05-15T20:36:51.114Z,17.98
2023-05-15T20:39:20.090Z,16.63
2023-05-15T20:41:47.201Z,15.88
2023-05-15T20:44:14.566Z,16.38
2023-05-15T20:46:44.172Z,16.52
2023-05-15T20:49:11.807Z,15.90
2023-05-15T20:51:38.842Z,16.05
2023-05-15T20:54:06.219Z,15.93
2023-05-15T20:56:33.456Z,16.15
2023-05-15T20:59:03.290Z,15.57
2023-05-15T21:01:32.777Z,16.00
2023-05-15T21:04:02.301Z,16.98
2023-05-15T21:06:31.964Z,16.02
2023-05-15T21:09:01.817Z,17.08
2023-05-15T21:11:32.023Z,19.50
2023-05-15T21:13:59.429Z,18.30
2023-05-15T21:16:26.654Z,17.58
2023-05-15T21:18:54.193Z,18.40
2023-05-15T21:21:24.444Z,20.60
2023-05-15T21:23:51.829Z,20.27
2023-05-15T21:26:18.903Z,20.13
2023-05-15T21:28:46.287Z,19.92
2023-05-15T21:31:13.473Z,20.25
2023-05-15T21:33:40.848Z,22.55
2023-05-15T21:36:10.559Z,22.88
2023-05-15T21:38:40.364Z,19.40
2023-05-15T21:41:07.481Z,27.17
2023-05-15T21:43:34.920Z,34.15
2023-05-15T21:46:04.233Z,21.35
2023-05-15T21:48:31.749Z,20.17
2023-05-15T21:51:00.397Z,21.00
2023-05-15T21:53:30.267Z,20.77
2023-05-15T21:56:01.031Z,19.80
2023-05-15T21:58:31.240Z,20.88
2023-05-15T22:00:58.320Z,21.40
2023-05-15T22:03:25.809Z,20.27
2023-05-15T22:05:55.394Z,20.33
2023-05-15T22:08:28.892Z,19.40
2023-05-15T22:13:25.957Z,19.08
2023-05-15T22:15:57.728Z,22.02
2023-05-15T22:18:25.155Z,19.95
2023-05-15T22:20:52.181Z,21.23
2023-05-15T22:23:21.763Z,22.88
2023-05-15T22:25:48.806Z,19.73
2023-05-15T22:28:16.420Z,19.05
2023-05-15T22:30:48.151Z,19.08
2023-05-15T22:33:15.518Z,22.98
2023-05-15T22:35:42.574Z,20.70
2023-05-15T22:38:12.126Z,18.80
2023-05-15T22:40:39.228Z,19.02
2023-05-15T22:43:07.125Z,18.27
2023-05-15T22:45:34.821Z,19.25
2023-05-15T22:48:02.310Z,18.83
2023-05-15T22:50:29.547Z,20.88
2023-05-15T22:52:57.070Z,20.23
2023-05-15T22:55:24.208Z,17.55
2023-05-15T22:57:53.830Z,19.73
2023-05-15T23:00:20.955Z,18.75
2023-05-15T23:02:48.513Z,18.42
2023-05-15T23:05:18.180Z,18.20
2023-05-15T23:07:45.527Z,16.63
2023-05-15T23:10:12.708Z,18.83
2023-05-15T23:12:42.454Z,16.85
2023-05-15T23:15:10.471Z,16.52
2023-05-15T23:17:38.275Z,16.02
2023-05-15T23:20:06.102Z,18.30
2023-05-15T23:22:33.567Z,14.32
2023-05-15T23:25:02.959Z,15.85
2023-05-15T23:27:30.426Z,17.05
2023-05-15T23:29:59.744Z,15.82
2023-05-15T23:32:27.161Z,15.60
2023-05-15T23:34:54.280Z,16.48
2023-05-15T23:37:21.728Z,17.13
2023-05-15T23:39:48.754Z,18.38
2023-05-15T23:42:16.143Z,15.32
2023-05-15T23:44:44.082Z,17.20
2023-05-15T23:47:11.498Z,17.60
2023-05-15T23:49:38.589Z,15.82
2023-05-15T23:52:08.368Z,16.42
2023-05-15T23:54:35.405Z,17.20
2023-05-15T23:57:02.888Z,18.77
2023-05-15T23:59:30.079Z,15.63
